createdAt,value
2022-11-16T00:01:05.446Z,89440.78
2022-11-16T00:03:33.442Z,89437.94
2022-11-16T00:06:03.614Z,89428.31
2022-11-16T00:08:32.872Z,89424.94
2022-11-16T00:11:17.356Z,89425.91
2022-11-16T00:13:44.120Z,89426.44
2022-11-16T00:16:17.984Z,89421.13
2022-11-16T00:18:45.517Z,89428.13
2022-11-16T00:21:12.452Z,89418.31
2022-11-16T00:23:40.013Z,89421.03
2022-11-16T00:26:08.423Z,89407.34
2022-11-16T00:28:35.837Z,89417.53
2022-11-16T00:31:06.433Z,89413.81
2022-11-16T00:33:35.191Z,89409.56
2022-11-16T00:36:03.726Z,89421.47
2022-11-16T00:38:30.889Z,89417.47
2022-11-16T00:40:57.956Z,89428.31
2022-11-16T00:43:27.361Z,89420.97
2022-11-16T00:45:54.326Z,89423.66
2022-11-16T00:48:22.598Z,89423.25
2022-11-16T00:50:49.802Z,89427.03
2022-11-16T00:53:19.471Z,89414.00
2022-11-16T00:55:47.891Z,89413.41
2022-11-16T00:58:15.803Z,89409.38
2022-11-16T01:00:43.353Z,89411.91
2022-11-16T01:03:10.954Z,89401.34
2022-11-16T01:05:37.848Z,89403.81
2022-11-16T01:08:04.909Z,89391.38
2022-11-16T01:10:31.718Z,89393.63
2022-11-16T01:12:58.969Z,89402.03
2022-11-16T01:15:27.692Z,89385.53
2022-11-16T01:17:56.549Z,89387.03
2022-11-16T01:20:27.107Z,89384.53
2022-11-16T01:22:55.679Z,89381.91
2022-11-16T01:25:22.809Z,89378.09
2022-11-16T01:27:49.756Z,89370.94
2022-11-16T01:30:16.781Z,89379.72
2022-11-16T01:32:43.790Z,89381.03
2022-11-16T01:35:17.447Z,89371.50
2022-11-16T01:37:45.153Z,89362.56
2022-11-16T01:40:13.923Z,89365.50
2022-11-16T01:42:41.480Z,89371.84
2022-11-16T01:45:44.744Z,89368.16
2022-11-16T01:48:14.787Z,89370.06
2022-11-16T01:50:42.672Z,89371.25
2022-11-16T01:53:11.379Z,89364.22
2022-11-16T01:55:39.768Z,89359.69
2022-11-16T01:58:07.576Z,89359.81
2022-11-16T02:00:34.462Z,89360.53
2022-11-16T02:03:01.762Z,89358.56
2022-11-16T02:05:41.139Z,89354.25
2022-11-16T02:08:24.777Z,89348.53
2022-11-16T02:11:05.763Z,89348.09
2022-11-16T02:14:10.773Z,89353.44
2022-11-16T02:16:43.469Z,89354.38
2022-11-16T02:19:38.152Z,89353.94
2022-11-16T02:22:23.420Z,89340.44
2022-11-16T02:25:13.641Z,89347.31
2022-11-16T02:28:05.243Z,89339.22
2022-11-16T02:30:32.770Z,89348.28
2022-11-16T02:33:05.109Z,89351.72
2022-11-16T02:35:37.832Z,89346.56
2022-11-16T02:38:27.248Z,89358.31
2022-11-16T02:41:10.857Z,89346.09
2022-11-16T02:43:47.654Z,89348.47
2022-11-16T02:46:25.202Z,89350.78
2022-11-16T02:48:56.438Z,89351.91
2022-11-16T02:51:27.574Z,89361.28
2022-11-16T02:54:21.223Z,89355.03
2022-11-16T02:57:03.453Z,89351.22
2022-11-16T02:59:36.601Z,89354.22
2022-11-16T03:02:21.531Z,89348.75
2022-11-16T03:04:52.278Z,89349.94
2022-11-16T03:07:26.045Z,89353.75
2022-11-16T03:09:55.216Z,89346.31
2022-11-16T03:12:25.687Z,89355.22
2022-11-16T03:15:01.796Z,89340.88
2022-11-16T03:17:37.050Z,89338.38
2022-11-16T03:20:26.438Z,89345.09
2022-11-16T03:23:03.484Z,89333.09
2022-11-16T03:25:37.128Z,89335.72
2022-11-16T03:28:08.499Z,89323.88
2022-11-16T03:30:44.323Z,89324.41
2022-11-16T03:33:19.538Z,89321.28
2022-11-16T03:36:04.677Z,89325.28
2022-11-16T03:38:36.298Z,89329.75
2022-11-16T03:41:08.035Z,89328.34
2022-11-16T03:43:36.538Z,89322.47
2022-11-16T03:46:03.788Z,89321.00
2022-11-16T03:48:39.740Z,89321.00
2022-11-16T03:51:09.497Z,89328.59
2022-11-16T03:53:36.658Z,89334.28
2022-11-16T03:56:04.794Z,89328.56
2022-11-16T03:58:33.975Z,89333.25
2022-11-16T04:01:01.260Z,89338.69
2022-11-16T04:03:28.066Z,89335.00
2022-11-16T04:05:56.203Z,89331.91
2022-11-16T04:08:23.077Z,89328.56
2022-11-16T04:10:49.994Z,89325.28
2022-11-16T04:13:23.720Z,89322.31
2022-11-16T04:15:50.405Z,89317.34
2022-11-16T04:18:17.844Z,89319.75
2022-11-16T04:20:45.361Z,89319.44
2022-11-16T04:23:16.496Z,89313.47
2022-11-16T04:25:44.617Z,89322.31
2022-11-16T04:28:12.255Z,89313.63
2022-11-16T04:30:47.994Z,89310.84
2022-11-16T04:33:14.880Z,89310.50
2022-11-16T04:35:42.423Z,89318.44
2022-11-16T04:38:09.192Z,89317.09
2022-11-16T04:40:36.904Z,89313.47
2022-11-16T04:43:04.942Z,89310.44
2022-11-16T04:45:32.174Z,89308.38
2022-11-16T04:47:58.917Z,89310.38
2022-11-16T04:50:26.509Z,89304.16
2022-11-16T04:52:53.211Z,89303.63
2022-11-16T04:55:21.450Z,89297.56
2022-11-16T04:57:48.344Z,89296.72
2022-11-16T05:00:15.629Z,89298.16
2022-11-16T05:02:42.491Z,89302.59
2022-11-16T05:05:10.063Z,89306.28
2022-11-16T05:07:39.126Z,89309.78
2022-11-16T05:10:06.495Z,89310.16
2022-11-16T05:12:34.552Z,89307.81
2022-11-16T05:15:01.321Z,89308.91
2022-11-16T05:17:28.454Z,89307.56
2022-11-16T05:19:55.555Z,89301.22
2022-11-16T05:22:22.654Z,89306.25
2022-11-16T05:24:49.492Z,89295.59
2022-11-16T05:27:18.310Z,89301.31
2022-11-16T05:29:45.231Z,89297.53
2022-11-16T05:32:13.182Z,89304.81
2022-11-16T05:34:40.144Z,89300.72
2022-11-16T05:37:07.195Z,89303.81
2022-11-16T05:39:34.356Z,89304.72
2022-11-16T05:42:01.606Z,89298.13
2022-11-16T05:44:28.358Z,89298.00
2022-11-16T05:46:55.394Z,89302.94
2022-11-16T05:49:22.894Z,89301.03
2022-11-16T05:51:50.035Z,89310.00
2022-11-16T05:54:21.860Z,89306.31
2022-11-16T05:56:49.616Z,89313.94
2022-11-16T05:59:18.587Z,89307.38
2022-11-16T06:01:45.946Z,89305.47
2022-11-16T06:04:13.552Z,89296.63
2022-11-16T06:06:40.950Z,89304.78
2022-11-16T06:09:08.442Z,89293.81
2022-11-16T06:11:36.331Z,89289.16
2022-11-16T06:14:03.282Z,89294.13
2022-11-16T06:16:30.203Z,89303.59
2022-11-16T06:19:00.091Z,89298.78
2022-11-16T06:21:27.264Z,89300.09
2022-11-16T06:23:54.020Z,89288.16
2022-11-16T06:26:21.145Z,89285.00
2022-11-16T06:28:48.731Z,89289.38
2022-11-16T06:31:15.551Z,89290.00
2022-11-16T06:33:42.382Z,89290.09
2022-11-16T06:36:12.220Z,89299.88
2022-11-16T06:38:42.635Z,89297.78
2022-11-16T06:41:09.569Z,89290.09
2022-11-16T06:43:36.426Z,89277.84
2022-11-16T06:46:03.284Z,89284.19
2022-11-16T06:48:30.956Z,89286.78
2022-11-16T06:50:57.887Z,89283.84
2022-11-16T06:53:29.017Z,89279.41
2022-11-16T06:56:00.386Z,89289.41
2022-11-16T06:58:29.487Z,89281.66
2022-11-16T07:00:56.211Z,89283.78
2022-11-16T07:03:23.966Z,89278.22
2022-11-16T07:05:50.775Z,89281.19
2022-11-16T07:08:17.473Z,89278.22
2022-11-16T07:10:44.516Z,89266.78
2022-11-16T07:13:11.286Z,89269.22
2022-11-16T07:15:38.067Z,89260.84
2022-11-16T07:18:07.195Z,89255.19
2022-11-16T07:20:34.836Z,89255.56
2022-11-16T07:23:03.229Z,89257.22
2022-11-16T07:25:31.890Z,89261.28
2022-11-16T07:27:58.678Z,89255.81
2022-11-16T07:30:26.555Z,89255.47
2022-11-16T07:32:58.127Z,89254.47
2022-11-16T07:35:25.310Z,89254.63
2022-11-16T07:37:52.169Z,89247.75
2022-11-16T07:40:19.465Z,89250.13
2022-11-16T07:42:46.339Z,89250.47
2022-11-16T07:45:13.245Z,89238.81
2022-11-16T07:47:40.113Z,89244.75
2022-11-16T07:50:07.532Z,89245.66
2022-11-16T07:52:34.868Z,89244.75
2022-11-16T07:55:02.053Z,89242.28
2022-11-16T07:57:28.967Z,89235.97
2022-11-16T07:59:56.013Z,89244.34
2022-11-16T08:02:22.977Z,89246.53
2022-11-16T08:04:50.514Z,89241.50
2022-11-16T08:07:17.339Z,89238.75
2022-11-16T08:09:44.270Z,89236.94
2022-11-16T08:12:11.177Z,89234.66
2022-11-16T08:14:37.992Z,89229.72
2022-11-16T08:17:05.074Z,89235.78
2022-11-16T08:19:31.922Z,89230.63
2022-11-16T08:21:58.717Z,89222.47
2022-11-16T08:24:26.092Z,89218.00
2022-11-16T08:26:52.834Z,89227.97
2022-11-16T08:29:19.730Z,89223.50
2022-11-16T08:31:46.937Z,89216.34
2022-11-16T08:34:16.204Z,89221.66
2022-11-16T08:36:42.971Z,89213.63
2022-11-16T08:39:09.952Z,89208.72
2022-11-16T08:41:36.841Z,89210.16
2022-11-16T08:44:04.273Z,89203.56
2022-11-16T08:46:31.017Z,89201.31
2022-11-16T08:48:58.446Z,89194.47
2022-11-16T08:51:28.319Z,89191.53
2022-11-16T08:53:59.076Z,89183.38
2022-11-16T08:56:26.615Z,89185.94
2022-11-16T08:58:58.398Z,89178.88
2022-11-16T09:01:28.492Z,89176.66
2022-11-16T09:03:56.305Z,89167.03
2022-11-16T09:06:24.765Z,89164.44
2022-11-16T09:08:52.527Z,89166.22
2022-11-16T09:11:21.620Z,89161.53
2022-11-16T09:13:49.989Z,89158.75
2022-11-16T09:16:22.306Z,89153.63
2022-11-16T09:18:51.927Z,89152.97
2022-11-16T09:21:26.737Z,89144.97
2022-11-16T09:24:05.641Z,89141.16
2022-11-16T09:26:32.576Z,89140.50
2022-11-16T09:29:01.177Z,89131.50
2022-11-16T09:31:37.155Z,89133.19
2022-11-16T09:34:04.055Z,89123.28
2022-11-16T09:36:31.522Z,89129.09
2022-11-16T09:42:08.448Z,89125.69
2022-11-16T09:44:56.647Z,89132.50
2022-11-16T09:47:47.057Z,89123.28
2022-11-16T09:50:47.848Z,89130.53
2022-11-16T09:53:23.973Z,89122.06
2022-11-16T09:55:53.395Z,89116.47
2022-11-16T09:58:47.130Z,89110.69
2022-11-16T10:01:41.969Z,89110.19
2022-11-16T10:04:18.313Z,89115.50
2022-11-16T10:06:51.774Z,89110.91
2022-11-16T10:09:19.574Z,89108.25
2022-11-16T10:11:55.239Z,89104.13
2022-11-16T10:14:42.940Z,89102.91
2022-11-16T10:17:17.097Z,89098.78
2022-11-16T10:20:10.763Z,89098.06
2022-11-16T10:23:14.168Z,89093.19
2022-11-16T10:25:45.122Z,89084.59
2022-11-16T10:28:49.249Z,89081.28
2022-11-16T10:31:50.949Z,89077.16
2022-11-16T10:34:26.446Z,89060.44
2022-11-16T10:37:01.244Z,89067.97
2022-11-16T10:39:31.570Z,89071.88
2022-11-16T10:42:07.211Z,89065.84
2022-11-16T10:44:52.731Z,89060.75
2022-11-16T10:47:34.051Z,89059.50
2022-11-16T10:50:18.712Z,89062.31
2022-11-16T10:52:45.590Z,89055.06
2022-11-16T10:55:15.817Z,89057.78
2022-11-16T10:58:03.459Z,89061.84
2022-11-16T11:00:49.908Z,89058.50
2022-11-16T11:03:30.597Z,89055.50
2022-11-16T11:05:57.645Z,89055.72
2022-11-16T11:08:27.583Z,89047.34
2022-11-16T11:11:05.682Z,89061.16
2022-11-16T11:13:32.873Z,89057.97
2022-11-16T11:16:17.838Z,89062.63
2022-11-16T11:18:46.266Z,89052.44
2022-11-16T11:21:18.859Z,89042.72
2022-11-16T11:23:49.590Z,89052.22
2022-11-16T11:26:36.145Z,89054.63
2022-11-16T11:29:20.746Z,89051.44
2022-11-16T11:31:51.969Z,89043.44
2022-11-16T11:34:35.375Z,89054.38
2022-11-16T11:37:04.014Z,89040.81
2022-11-16T11:39:32.816Z,89047.38
2022-11-16T11:42:04.339Z,89040.31
2022-11-16T11:44:38.664Z,89037.88
2022-11-16T11:48:01.941Z,89046.16
2022-11-16T11:51:06.930Z,89045.69
2022-11-16T11:53:42.637Z,89045.00
2022-11-16T11:56:12.885Z,89041.13
2022-11-16T11:58:40.963Z,89045.00
2022-11-16T12:01:44.462Z,89044.28
2022-11-16T12:04:38.026Z,89036.53
2022-11-16T12:07:18.457Z,89030.72
2022-11-16T12:10:00.553Z,89025.88
2022-11-16T12:13:21.243Z,89030.47
2022-11-16T12:19:39.234Z,89029.25
2022-11-16T12:22:40.084Z,89027.78
2022-11-16T13:22:09.217Z,89019.75
2022-11-16T13:28:38.261Z,89022.16
2022-11-16T13:31:17.507Z,89025.31
2022-11-16T13:44:51.673Z,89030.69
2022-11-16T14:06:30.140Z,89037.75
2022-11-16T14:08:58.234Z,89039.69
2022-11-16T14:11:37.918Z,89032.41
2022-11-16T14:14:10.584Z,89032.66
2022-11-16T14:16:59.092Z,89029.50
2022-11-16T14:19:44.324Z,89024.44
2022-11-16T14:22:53.351Z,89029.03
2022-11-16T14:25:28.485Z,89030.69
2022-11-16T14:28:25.654Z,89034.56
2022-11-16T14:31:01.302Z,89026.81
2022-11-16T14:33:36.314Z,89029.72
2022-11-16T14:36:06.687Z,89027.06
2022-11-16T14:38:36.896Z,89027.78
2022-11-16T14:41:06.780Z,89020.78
2022-11-16T14:43:43.639Z,89025.84
2022-11-16T14:46:35.019Z,89029.47
2022-11-16T14:49:03.224Z,89021.00
2022-11-16T14:51:41.955Z,89031.16
2022-11-16T14:54:35.049Z,89026.81
2022-11-16T14:57:04.730Z,89032.88
2022-11-16T14:59:32.222Z,89035.50
2022-11-16T15:02:04.883Z,89040.34
2022-11-16T15:04:32.295Z,89038.66
2022-11-16T15:07:03.308Z,89039.13
2022-11-16T15:09:37.480Z,89032.25
2022-11-16T15:12:07.003Z,89031.53
2022-11-16T15:14:40.694Z,89030.78
2022-11-16T15:17:08.280Z,89031.47
2022-11-16T15:19:35.588Z,89036.31
2022-11-16T15:22:04.363Z,89034.34
2022-11-16T15:24:33.498Z,89038.72
2022-11-16T15:27:09.573Z,89035.53
2022-11-16T15:29:37.031Z,89027.78
2022-11-16T15:32:04.707Z,89034.00
2022-11-16T15:34:34.695Z,89039.03
2022-11-16T15:37:02.437Z,89043.84
2022-11-16T15:39:34.542Z,89047.41
2022-11-16T15:42:04.189Z,89052.72
2022-11-16T15:44:33.283Z,89038.50
2022-11-16T15:47:02.443Z,89047.59
2022-11-16T15:49:30.455Z,89044.94
2022-11-16T15:51:58.713Z,89046.38
2022-11-16T15:54:25.528Z,89047.22
2022-11-16T15:56:56.064Z,89051.09
2022-11-16T15:59:31.822Z,89049.69
2022-11-16T16:02:07.051Z,89054.06
2022-11-16T16:05:06.344Z,89055.69
2022-11-16T16:07:41.769Z,89053.81
2022-11-16T16:10:24.720Z,89047.28
2022-11-16T16:12:56.867Z,89051.59
2022-11-16T16:15:35.192Z,89052.56
2022-11-16T16:18:04.081Z,89061.59
2022-11-16T16:20:32.718Z,89061.38
2022-11-16T16:23:11.615Z,89059.25
2022-11-16T16:25:39.033Z,89064.31
2022-11-16T16:28:07.126Z,89053.22
2022-11-16T16:30:34.177Z,89058.75
2022-11-16T16:33:02.284Z,89056.31
2022-11-16T16:35:29.249Z,89060.91
2022-11-16T16:38:00.603Z,89056.78
2022-11-16T16:40:28.307Z,89055.34
2022-11-16T16:42:56.497Z,89054.84
2022-11-16T16:45:49.824Z,89053.16
2022-11-16T16:48:16.637Z,89050.91
2022-11-16T16:50:43.538Z,89052.84
2022-11-16T16:53:14.467Z,89049.69
2022-11-16T16:55:44.384Z,89055.50
2022-11-16T16:58:13.072Z,89047.03
2022-11-16T17:00:40.783Z,89053.56
2022-11-16T17:03:08.022Z,89054.66
2022-11-16T17:05:35.045Z,89053.22
2022-11-16T17:08:02.082Z,89045.19
2022-11-16T17:10:28.932Z,89050.66
2022-11-16T17:12:58.890Z,89052.78
2022-11-16T17:15:25.763Z,89040.97
2022-11-16T17:17:52.591Z,89048.94
2022-11-16T17:20:19.537Z,89046.53
2022-11-16T17:22:46.332Z,89047.03
2022-11-16T17:25:13.261Z,89051.13
2022-11-16T17:27:40.140Z,89046.03
2022-11-16T17:30:07.852Z,89049.63
2022-11-16T17:32:34.697Z,89050.81
2022-11-16T17:35:01.761Z,89044.25
2022-11-16T17:37:28.613Z,89044.53
2022-11-16T17:39:55.414Z,89049.63
2022-11-16T17:42:22.356Z,89042.34
2022-11-16T17:44:49.120Z,89040.41
2022-11-16T17:47:16.013Z,89039.50
2022-11-16T17:49:42.867Z,89044.81
2022-11-16T17:52:09.679Z,89045.50
2022-11-16T17:54:36.540Z,89042.44
2022-11-16T17:57:03.363Z,89043.19
2022-11-16T17:59:30.848Z,89040.59
2022-11-16T18:01:57.704Z,89040.41
2022-11-16T18:04:24.677Z,89037.81
2022-11-16T18:06:51.964Z,89049.59
2022-11-16T18:09:18.820Z,89054.41
2022-11-16T18:11:45.857Z,89046.28
2022-11-16T18:14:13.100Z,89037.31
2022-11-16T18:16:39.918Z,89050.81
2022-11-16T18:19:07.473Z,89052.50
2022-11-16T18:21:41.348Z,89054.94
2022-11-16T18:24:09.178Z,89057.41
2022-11-16T18:26:36.919Z,89060.41
2022-11-16T18:29:04.070Z,89053.13
2022-11-16T18:31:30.905Z,89045.97
2022-11-16T18:33:57.719Z,89058.81
2022-11-16T18:36:24.831Z,89061.97
2022-11-16T18:38:51.610Z,89061.19
2022-11-16T18:41:25.112Z,89065.59
2022-11-16T18:44:00.198Z,89064.16
2022-11-16T18:46:32.528Z,89061.25
2022-11-16T18:49:03.139Z,89072.38
2022-11-16T18:51:29.969Z,89066.16
2022-11-16T18:53:56.761Z,89069.91
2022-11-16T18:56:24.708Z,89068.53
2022-11-16T18:58:52.897Z,89072.75
2022-11-16T19:01:22.935Z,89072.28
2022-11-16T19:03:50.993Z,89068.94
2022-11-16T19:06:18.439Z,89064.63
2022-11-16T19:08:50.515Z,89062.81
2022-11-16T19:11:23.104Z,89069.56
2022-11-16T19:13:54.829Z,89068.66
2022-11-16T19:16:22.345Z,89074.38
2022-11-16T19:18:49.260Z,89076.66
2022-11-16T19:21:17.072Z,89076.16
2022-11-16T19:23:46.466Z,89071.13
2022-11-16T19:26:17.933Z,89075.72
2022-11-16T19:28:49.304Z,89078.38
2022-11-16T19:31:19.656Z,89077.84
2022-11-16T19:33:46.719Z,89078.31
2022-11-16T19:36:15.820Z,89072.97
2022-11-16T19:38:43.372Z,89068.88
2022-11-16T19:41:12.038Z,89076.19
2022-11-16T19:43:39.205Z,89082.00
2022-11-16T19:46:14.762Z,89083.88
2022-11-16T19:48:41.485Z,89081.72
2022-11-16T19:51:11.284Z,89083.44
2022-11-16T19:53:40.052Z,89082.31
2022-11-16T19:56:10.270Z,89078.03
2022-11-16T19:58:37.876Z,89079.97
2022-11-16T20:01:13.944Z,89084.22
2022-11-16T20:03:40.945Z,89077.63
2022-11-16T20:06:34.641Z,89077.88
2022-11-16T20:09:04.465Z,89070.09
2022-11-16T20:11:33.725Z,89072.47
2022-11-16T20:14:01.990Z,89074.53
2022-11-16T20:16:38.780Z,89079.75
2022-11-16T20:19:10.587Z,89073.44
2022-11-16T20:21:42.113Z,89079.47
2022-11-16T20:24:16.475Z,89076.13
2022-11-16T20:26:45.236Z,89074.53
2022-11-16T20:29:14.773Z,89072.69
2022-11-16T20:31:41.681Z,89080.41
2022-11-16T20:34:11.832Z,89074.78
2022-11-16T20:36:38.667Z,89083.91
2022-11-16T20:39:05.398Z,89083.66
2022-11-16T20:41:33.554Z,89082.78
2022-11-16T20:44:02.096Z,89088.28
2022-11-16T20:46:33.450Z,89094.56
2022-11-16T20:49:00.603Z,89089.88
2022-11-16T20:51:42.930Z,89091.78
2022-11-16T20:54:09.785Z,89092.94
2022-11-16T20:56:36.717Z,89096.09
2022-11-16T20:59:03.580Z,89091.53
2022-11-16T21:01:30.484Z,89088.88
2022-11-16T21:04:05.728Z,89095.06
2022-11-16T21:06:33.425Z,89093.19
2022-11-16T21:09:01.334Z,89098.03
2022-11-16T21:11:30.292Z,89091.53
2022-11-16T21:13:57.504Z,89087.19
2022-11-16T21:16:24.989Z,89085.72
2022-11-16T21:18:53.278Z,89085.81
2022-11-16T21:21:20.038Z,89090.75
2022-11-16T21:23:48.261Z,89082.72
2022-11-16T21:26:15.528Z,89087.22
2022-11-16T21:28:42.793Z,89072.97
2022-11-16T21:31:22.523Z,89084.75
2022-11-16T21:33:49.373Z,89085.13
2022-11-16T21:36:18.490Z,89083.56
2022-11-16T21:38:46.737Z,89084.84
2022-11-16T21:41:15.579Z,89083.38
2022-11-16T21:43:42.699Z,89091.56
2022-11-16T21:46:15.484Z,89087.53
2022-11-16T21:48:42.715Z,89082.16
2022-11-16T21:51:13.060Z,89098.19
2022-11-16T21:53:40.380Z,89102.56
2022-11-16T21:56:10.723Z,89094.03
2022-11-16T21:58:39.082Z,89094.75
2022-11-16T22:01:07.766Z,89103.22
2022-11-16T22:03:34.941Z,89102.69
2022-11-16T22:06:10.361Z,89101.72
2022-11-16T22:08:38.567Z,89104.81
2022-11-16T22:11:05.683Z,89098.41
2022-11-16T22:13:32.752Z,89108.13
2022-11-16T22:16:13.844Z,89097.19
2022-11-16T22:18:40.776Z,89104.69
2022-11-16T22:21:07.808Z,89096.53
2022-11-16T22:23:35.299Z,89101.28
2022-11-16T22:26:04.430Z,89096.78
2022-11-16T22:28:33.476Z,89094.19
2022-11-16T22:31:14.455Z,89104.28
2022-11-16T22:33:41.944Z,89092.00
2022-11-16T22:36:12.427Z,89083.22
2022-11-16T22:38:39.213Z,89082.94
2022-11-16T22:41:08.077Z,89078.97
2022-11-16T22:43:35.218Z,89084.63
2022-11-16T22:46:05.470Z,89082.41
2022-11-16T22:48:33.835Z,89084.66
2022-11-16T22:51:19.105Z,89075.59
2022-11-16T22:53:46.053Z,89080.16
2022-11-16T22:56:13.565Z,89074.56
2022-11-16T22:58:40.339Z,89083.06
2022-11-16T23:01:09.191Z,89079.22
2022-11-16T23:03:36.881Z,89081.88
2022-11-16T23:06:05.700Z,89085.06
2022-11-16T23:08:33.291Z,89074.78
2022-11-16T23:11:06.524Z,89086.94
2022-11-16T23:13:33.659Z,89087.31
2022-11-16T23:16:04.971Z,89086.06
2022-11-16T23:18:31.896Z,89092.53
2022-11-16T23:20:58.709Z,89094.25
2022-11-16T23:23:25.507Z,89087.56
2022-11-16T23:25:53.770Z,89098.97
2022-11-16T23:28:21.140Z,89096.91
2022-11-16T23:30:47.865Z,89100.06
2022-11-16T23:33:14.733Z,89093.53
2022-11-16T23:35:54.156Z,89105.31
2022-11-16T23:38:20.867Z,89104.91
2022-11-16T23:40:47.657Z,89106.69
2022-11-16T23:43:14.416Z,89105.06
2022-11-16T23:45:42.093Z,89104.00
2022-11-16T23:48:10.870Z,89107.19
2022-11-16T23:50:37.876Z,89111.94
2022-11-16T23:53:06.260Z,89108.53
2022-11-16T23:55:34.639Z,89097.97
2022-11-16T23:58:01.935Z,89109.25
